sensor_id;sensor_type;location;lat;lon;timestamp;temperature;humidity
17859;DHT22;35426;30.698;104.050;2022-12-10T00:00:24;11.10;99.90
17859;DHT22;35426;30.698;104.050;2022-12-10T00:02:59;11.10;99.90
17859;DHT22;35426;30.698;104.050;2022-12-10T00:05:36;11.10;99.90
17859;DHT22;35426;30.698;104.050;2022-12-10T00:08:10;11.00;99.90
17859;DHT22;35426;30.698;104.050;2022-12-10T00:10:44;11.10;99.90
17859;DHT22;35426;30.698;104.050;2022-12-10T00:13:19;11.10;99.90
17859;DHT22;35426;30.698;104.050;2022-12-10T00:15:53;11.10;99.90
17859;DHT22;35426;30.698;104.050;2022-12-10T00:18:27;11.10;99.90
17859;DHT22;35426;30.698;104.050;2022-12-10T00:21:05;11.20;99.90
17859;DHT22;35426;30.698;104.050;2022-12-10T00:23:40;11.20;99.90
17859;DHT22;35426;30.698;104.050;2022-12-10T00:26:15;11.20;99.90
17859;DHT22;35426;30.698;104.050;2022-12-10T00:28:50;11.20;99.90
17859;DHT22;35426;30.698;104.050;2022-12-10T00:31:25;11.30;99.90
17859;DHT22;35426;30.698;104.050;2022-12-10T00:34:01;11.30;99.90
17859;DHT22;35426;30.698;104.050;2022-12-10T00:36:41;11.30;99.90
17859;DHT22;35426;30.698;104.050;2022-12-10T00:39:17;11.40;99.90
17859;DHT22;35426;30.698;104.050;2022-12-10T00:41:52;11.30;99.90
17859;DHT22;35426;30.698;104.050;2022-12-10T00:44:27;11.40;99.90
17859;DHT22;35426;30.698;104.050;2022-12-10T00:47:01;11.50;99.90
17859;DHT22;35426;30.698;104.050;2022-12-10T00:49:35;11.60;99.90
17859;DHT22;35426;30.698;104.050;2022-12-10T00:52:11;11.70;99.90
17859;DHT22;35426;30.698;104.050;2022-12-10T00:54:46;11.80;99.90
17859;DHT22;35426;30.698;104.050;2022-12-10T00:57:20;11.90;99.90
17859;DHT22;35426;30.698;104.050;2022-12-10T00:59:55;11.80;99.90
17859;DHT22;35426;30.698;104.050;2022-12-10T01:02:29;11.80;99.90
17859;DHT22;35426;30.698;104.050;2022-12-10T01:05:03;11.80;99.90
17859;DHT22;35426;30.698;104.050;2022-12-10T01:07:39;12.00;99.90
17859;DHT22;35426;30.698;104.050;2022-12-10T01:10:13;11.90;99.90
17859;DHT22;35426;30.698;104.050;2022-12-10T01:12:48;12.00;99.90
17859;DHT22;35426;30.698;104.050;2022-12-10T01:15:22;12.00;99.90
17859;DHT22;35426;30.698;104.050;2022-12-10T01:17:56;12.10;99.90
17859;DHT22;35426;30.698;104.050;2022-12-10T01:20:30;12.00;99.90
17859;DHT22;35426;30.698;104.050;2022-12-10T01:23:10;12.10;99.90
17859;DHT22;35426;30.698;104.050;2022-12-10T01:25:44;12.10;99.90
17859;DHT22;35426;30.698;104.050;2022-12-10T01:28:19;12.20;99.90
17859;DHT22;35426;30.698;104.050;2022-12-10T01:30:53;12.40;99.90
17859;DHT22;35426;30.698;104.050;2022-12-10T01:33:27;12.50;99.90
17859;DHT22;35426;30.698;104.050;2022-12-10T01:36:04;12.50;99.90
17859;DHT22;35426;30.698;104.050;2022-12-10T01:38:40;12.50;99.90
17859;DHT22;35426;30.698;104.050;2022-12-10T01:41:18;12.30;99.90
17859;DHT22;35426;30.698;104.050;2022-12-10T01:43:55;12.40;99.90
17859;DHT22;35426;30.698;104.050;2022-12-10T01:46:31;12.40;99.90
17859;DHT22;35426;30.698;104.050;2022-12-10T01:49:07;12.50;99.90
17859;DHT22;35426;30.698;104.050;2022-12-10T01:51:43;12.60;99.90
17859;DHT22;35426;30.698;104.050;2022-12-10T01:54:21;12.60;99.90
17859;DHT22;35426;30.698;104.050;2022-12-10T01:57:00;12.80;99.90
17859;DHT22;35426;30.698;104.050;2022-12-10T01:59:36;12.70;99.90
17859;DHT22;35426;30.698;104.050;2022-12-10T02:02:14;12.90;99.90
17859;DHT22;35426;30.698;104.050;2022-12-10T02:04:57;13.10;99.90
17859;DHT22;35426;30.698;104.050;2022-12-10T02:07:44;13.10;99.90
17859;DHT22;35426;30.698;104.050;2022-12-10T02:10:29;13.20;99.90
17859;DHT22;35426;30.698;104.050;2022-12-10T02:13:13;13.10;99.90
17859;DHT22;35426;30.698;104.050;2022-12-10T02:15:52;13.10;99.90
17859;DHT22;35426;30.698;104.050;2022-12-10T02:18:32;13.20;99.90
17859;DHT22;35426;30.698;104.050;2022-12-10T02:21:16;13.10;99.90
17859;DHT22;35426;30.698;104.050;2022-12-10T02:23:54;13.20;99.90
17859;DHT22;35426;30.698;104.050;2022-12-10T02:26:36;13.40;99.90
17859;DHT22;35426;30.698;104.050;2022-12-10T02:29:19;13.50;99.90
17859;DHT22;35426;30.698;104.050;2022-12-10T02:31:59;13.50;99.90
17859;DHT22;35426;30.698;104.050;2022-12-10T02:34:40;13.70;99.90
17859;DHT22;35426;30.698;104.050;2022-12-10T02:37:19;13.90;99.90
17859;DHT22;35426;30.698;104.050;2022-12-10T02:40:00;13.70;99.90
17859;DHT22;35426;30.698;104.050;2022-12-10T02:42:44;13.90;99.90
17859;DHT22;35426;30.698;104.050;2022-12-10T02:45:24;14.00;99.90
17859;DHT22;35426;30.698;104.050;2022-12-10T02:48:03;14.10;99.90
17859;DHT22;35426;30.698;104.050;2022-12-10T02:50:42;14.30;99.90
17859;DHT22;35426;30.698;104.050;2022-12-10T02:53:16;14.50;99.90
17859;DHT22;35426;30.698;104.050;2022-12-10T02:55:59;14.60;99.90
17859;DHT22;35426;30.698;104.050;2022-12-10T02:58:54;14.80;99.90
17859;DHT22;35426;30.698;104.050;2022-12-10T03:01:44;14.80;99.90
17859;DHT22;35426;30.698;104.050;2022-12-10T03:04:23;15.20;99.90
17859;DHT22;35426;30.698;104.050;2022-12-10T03:07:02;15.20;99.90
17859;DHT22;35426;30.698;104.050;2022-12-10T03:09:43;15.20;99.90
17859;DHT22;35426;30.698;104.050;2022-12-10T03:12:21;15.40;99.90
17859;DHT22;35426;30.698;104.050;2022-12-10T03:14:58;15.60;99.90
17859;DHT22;35426;30.698;104.050;2022-12-10T03:17:35;15.80;99.90
17859;DHT22;35426;30.698;104.050;2022-12-10T03:20:11;16.00;99.90
17859;DHT22;35426;30.698;104.050;2022-12-10T03:22:47;15.90;99.90
17859;DHT22;35426;30.698;104.050;2022-12-10T03:25:25;15.80;99.90
17859;DHT22;35426;30.698;104.050;2022-12-10T03:28:00;15.70;99.90
17859;DHT22;35426;30.698;104.050;2022-12-10T03:30:37;15.70;99.90
17859;DHT22;35426;30.698;104.050;2022-12-10T03:33:15;15.40;99.90
17859;DHT22;35426;30.698;104.050;2022-12-10T03:35:50;15.70;99.90
17859;DHT22;35426;30.698;104.050;2022-12-10T03:38:24;15.50;99.90
17859;DHT22;35426;30.698;104.050;2022-12-10T03:40:59;15.60;99.90
17859;DHT22;35426;30.698;104.050;2022-12-10T03:43:33;15.70;99.90
17859;DHT22;35426;30.698;104.050;2022-12-10T03:46:08;15.70;99.90
17859;DHT22;35426;30.698;104.050;2022-12-10T03:48:44;15.70;99.90
17859;DHT22;35426;30.698;104.050;2022-12-10T03:51:19;15.60;99.90
17859;DHT22;35426;30.698;104.050;2022-12-10T03:53:54;15.50;99.90
17859;DHT22;35426;30.698;104.050;2022-12-10T03:56:29;15.10;99.90
17859;DHT22;35426;30.698;104.050;2022-12-10T03:59:04;15.20;99.90
17859;DHT22;35426;30.698;104.050;2022-12-10T04:01:42;15.50;99.90
17859;DHT22;35426;30.698;104.050;2022-12-10T04:04:22;15.70;99.90
17859;DHT22;35426;30.698;104.050;2022-12-10T04:06:59;15.70;99.90
17859;DHT22;35426;30.698;104.050;2022-12-10T04:09:36;15.80;99.90
17859;DHT22;35426;30.698;104.050;2022-12-10T04:12:14;15.80;99.90
17859;DHT22;35426;30.698;104.050;2022-12-10T04:14:51;15.80;99.90
17859;DHT22;35426;30.698;104.050;2022-12-10T04:17:43;15.80;99.90
17859;DHT22;35426;30.698;104.050;2022-12-10T04:20:24;15.70;99.90
17859;DHT22;35426;30.698;104.050;2022-12-10T04:23:15;15.80;99.90
17859;DHT22;35426;30.698;104.050;2022-12-10T04:26:11;16.10;99.90
17859;DHT22;35426;30.698;104.050;2022-12-10T04:29:03;16.20;99.90
17859;DHT22;35426;30.698;104.050;2022-12-10T04:31:40;16.20;99.90
17859;DHT22;35426;30.698;104.050;2022-12-10T04:34:16;16.10;99.90
17859;DHT22;35426;30.698;104.050;2022-12-10T04:36:57;15.90;99.90
17859;DHT22;35426;30.698;104.050;2022-12-10T04:39:34;15.70;99.90
17859;DHT22;35426;30.698;104.050;2022-12-10T04:42:12;15.60;99.90
17859;DHT22;35426;30.698;104.050;2022-12-10T04:44:52;15.80;99.90
17859;DHT22;35426;30.698;104.050;2022-12-10T04:47:30;15.80;99.90
17859;DHT22;35426;30.698;104.050;2022-12-10T04:50:08;16.10;99.90
17859;DHT22;35426;30.698;104.050;2022-12-10T04:52:46;15.60;99.90
17859;DHT22;35426;30.698;104.050;2022-12-10T04:55:23;15.60;99.90
17859;DHT22;35426;30.698;104.050;2022-12-10T04:58:00;15.70;99.90
17859;DHT22;35426;30.698;104.050;2022-12-10T05:00:36;15.90;99.90
17859;DHT22;35426;30.698;104.050;2022-12-10T05:03:13;15.60;99.90
17859;DHT22;35426;30.698;104.050;2022-12-10T05:05:48;15.50;99.90
17859;DHT22;35426;30.698;104.050;2022-12-10T05:08:24;15.50;99.90
17859;DHT22;35426;30.698;104.050;2022-12-10T05:11:03;15.40;99.90
17859;DHT22;35426;30.698;104.050;2022-12-10T05:13:38;15.70;99.90
17859;DHT22;35426;30.698;104.050;2022-12-10T05:16:16;15.50;99.90
17859;DHT22;35426;30.698;104.050;2022-12-10T05:18:53;15.50;99.90
17859;DHT22;35426;30.698;104.050;2022-12-10T05:21:29;15.40;99.90
17859;DHT22;35426;30.698;104.050;2022-12-10T05:24:19;15.80;99.90
17859;DHT22;35426;30.698;104.050;2022-12-10T05:26:55;16.00;99.90
17859;DHT22;35426;30.698;104.050;2022-12-10T05:29:31;16.00;99.90
17859;DHT22;35426;30.698;104.050;2022-12-10T05:32:06;15.90;99.90
17859;DHT22;35426;30.698;104.050;2022-12-10T05:34:40;15.80;99.90
17859;DHT22;35426;30.698;104.050;2022-12-10T05:37:15;15.70;99.90
17859;DHT22;35426;30.698;104.050;2022-12-10T05:39:51;15.40;99.90
17859;DHT22;35426;30.698;104.050;2022-12-10T05:42:26;15.50;99.90
17859;DHT22;35426;30.698;104.050;2022-12-10T05:45:00;15.50;99.90
17859;DHT22;35426;30.698;104.050;2022-12-10T05:47:36;15.60;99.90
17859;DHT22;35426;30.698;104.050;2022-12-10T05:50:10;15.80;99.90
17859;DHT22;35426;30.698;104.050;2022-12-10T05:52:45;15.90;99.90
17859;DHT22;35426;30.698;104.050;2022-12-10T05:55:21;15.90;99.90
17859;DHT22;35426;30.698;104.050;2022-12-10T05:57:56;15.80;99.90
17859;DHT22;35426;30.698;104.050;2022-12-10T06:00:30;15.80;99.90
17859;DHT22;35426;30.698;104.050;2022-12-10T06:03:05;15.40;99.90
17859;DHT22;35426;30.698;104.050;2022-12-10T06:05:41;15.40;99.90
17859;DHT22;35426;30.698;104.050;2022-12-10T06:08:17;15.40;99.90
17859;DHT22;35426;30.698;104.050;2022-12-10T06:10:54;15.40;99.90
17859;DHT22;35426;30.698;104.050;2022-12-10T06:13:31;15.40;99.90
17859;DHT22;35426;30.698;104.050;2022-12-10T06:16:07;15.50;99.90
17859;DHT22;35426;30.698;104.050;2022-12-10T06:18:42;15.70;99.90
17859;DHT22;35426;30.698;104.050;2022-12-10T06:21:18;15.60;99.90
17859;DHT22;35426;30.698;104.050;2022-12-10T06:23:55;15.60;99.90
17859;DHT22;35426;30.698;104.050;2022-12-10T06:26:34;15.60;99.90
17859;DHT22;35426;30.698;104.050;2022-12-10T06:29:11;15.50;99.90
17859;DHT22;35426;30.698;104.050;2022-12-10T06:31:48;15.70;99.90
17859;DHT22;35426;30.698;104.050;2022-12-10T06:34:25;15.50;99.90
17859;DHT22;35426;30.698;104.050;2022-12-10T06:37:02;15.30;99.90
17859;DHT22;35426;30.698;104.050;2022-12-10T06:39:38;15.20;99.90
17859;DHT22;35426;30.698;104.050;2022-12-10T06:42:16;15.30;99.90
17859;DHT22;35426;30.698;104.050;2022-12-10T06:44:51;15.30;99.90
17859;DHT22;35426;30.698;104.050;2022-12-10T06:47:28;15.20;99.90
17859;DHT22;35426;30.698;104.050;2022-12-10T06:50:09;15.30;99.90
17859;DHT22;35426;30.698;104.050;2022-12-10T06:52:46;15.20;99.90
17859;DHT22;35426;30.698;104.050;2022-12-10T06:55:24;15.20;99.90
17859;DHT22;35426;30.698;104.050;2022-12-10T06:58:03;15.60;99.90
17859;DHT22;35426;30.698;104.050;2022-12-10T07:00:38;15.70;99.90
17859;DHT22;35426;30.698;104.050;2022-12-10T07:03:13;15.80;99.90
17859;DHT22;35426;30.698;104.050;2022-12-10T07:05:49;15.70;99.90
17859;DHT22;35426;30.698;104.050;2022-12-10T07:08:25;15.50;99.90
17859;DHT22;35426;30.698;104.050;2022-12-10T07:11:02;15.30;99.90
17859;DHT22;35426;30.698;104.050;2022-12-10T07:13:40;15.50;99.90
17859;DHT22;35426;30.698;104.050;2022-12-10T07:16:20;15.60;99.90
17859;DHT22;35426;30.698;104.050;2022-12-10T07:18:58;15.60;99.90
17859;DHT22;35426;30.698;104.050;2022-12-10T07:21:34;15.40;99.90
17859;DHT22;35426;30.698;104.050;2022-12-10T07:24:11;15.40;99.90
17859;DHT22;35426;30.698;104.050;2022-12-10T07:26:46;15.60;99.90
17859;DHT22;35426;30.698;104.050;2022-12-10T07:29:22;15.40;99.90
17859;DHT22;35426;30.698;104.050;2022-12-10T07:31:57;15.40;99.90
17859;DHT22;35426;30.698;104.050;2022-12-10T07:34:33;15.40;99.90
17859;DHT22;35426;30.698;104.050;2022-12-10T07:37:07;15.50;99.90
17859;DHT22;35426;30.698;104.050;2022-12-10T07:39:44;15.50;99.90
17859;DHT22;35426;30.698;104.050;2022-12-10T07:42:19;15.40;99.90
17859;DHT22;35426;30.698;104.050;2022-12-10T07:44:55;15.40;99.90
17859;DHT22;35426;30.698;104.050;2022-12-10T07:47:31;15.40;99.90
17859;DHT22;35426;30.698;104.050;2022-12-10T07:50:09;15.30;99.90
17859;DHT22;35426;30.698;104.050;2022-12-10T07:52:44;15.10;99.90
17859;DHT22;35426;30.698;104.050;2022-12-10T07:55:19;15.20;99.90
17859;DHT22;35426;30.698;104.050;2022-12-10T07:57:55;15.20;99.90
17859;DHT22;35426;30.698;104.050;2022-12-10T08:00:32;15.20;99.90
17859;DHT22;35426;30.698;104.050;2022-12-10T08:03:07;15.20;99.90
17859;DHT22;35426;30.698;104.050;2022-12-10T08:05:43;15.20;99.90
17859;DHT22;35426;30.698;104.050;2022-12-10T08:08:17;15.10;99.90
17859;DHT22;35426;30.698;104.050;2022-12-10T08:10:53;15.10;99.90
17859;DHT22;35426;30.698;104.050;2022-12-10T08:13:29;15.20;99.90
17859;DHT22;35426;30.698;104.050;2022-12-10T08:16:10;15.10;99.90
17859;DHT22;35426;30.698;104.050;2022-12-10T08:18:45;15.00;99.90
17859;DHT22;35426;30.698;104.050;2022-12-10T08:21:22;14.90;99.90
17859;DHT22;35426;30.698;104.050;2022-12-10T08:23:57;14.80;99.90
17859;DHT22;35426;30.698;104.050;2022-12-10T08:26:33;14.80;99.90
17859;DHT22;35426;30.698;104.050;2022-12-10T08:29:08;14.80;99.90
17859;DHT22;35426;30.698;104.050;2022-12-10T08:31:45;14.70;99.90
17859;DHT22;35426;30.698;104.050;2022-12-10T08:34:21;14.70;99.90
17859;DHT22;35426;30.698;104.050;2022-12-10T08:36:56;14.70;99.90
17859;DHT22;35426;30.698;104.050;2022-12-10T08:39:37;14.70;99.90
17859;DHT22;35426;30.698;104.050;2022-12-10T08:42:12;14.60;99.90
17859;DHT22;35426;30.698;104.050;2022-12-10T08:44:46;14.50;99.90
17859;DHT22;35426;30.698;104.050;2022-12-10T08:47:24;14.50;99.90
17859;DHT22;35426;30.698;104.050;2022-12-10T08:49:59;14.60;99.90
17859;DHT22;35426;30.698;104.050;2022-12-10T08:52:34;14.60;99.90
17859;DHT22;35426;30.698;104.050;2022-12-10T08:55:09;14.60;99.90
17859;DHT22;35426;30.698;104.050;2022-12-10T08:57:43;14.50;99.90
17859;DHT22;35426;30.698;104.050;2022-12-10T09:00:19;14.50;99.90
17859;DHT22;35426;30.698;104.050;2022-12-10T09:02:58;14.50;99.90
17859;DHT22;35426;30.698;104.050;2022-12-10T09:05:34;14.50;99.90
17859;DHT22;35426;30.698;104.050;2022-12-10T09:08:09;14.50;99.90
17859;DHT22;35426;30.698;104.050;2022-12-10T09:10:44;14.50;99.90
17859;DHT22;35426;30.698;104.050;2022-12-10T09:13:18;14.40;99.90
17859;DHT22;35426;30.698;104.050;2022-12-10T09:15:53;14.30;99.90
17859;DHT22;35426;30.698;104.050;2022-12-10T09:18:29;14.30;99.90
17859;DHT22;35426;30.698;104.050;2022-12-10T09:21:06;14.20;99.90
17859;DHT22;35426;30.698;104.050;2022-12-10T09:23:41;14.20;99.90
17859;DHT22;35426;30.698;104.050;2022-12-10T09:26:18;14.30;99.90
17859;DHT22;35426;30.698;104.050;2022-12-10T09:28:53;14.30;99.90
17859;DHT22;35426;30.698;104.050;2022-12-10T09:31:29;14.20;99.90
17859;DHT22;35426;30.698;104.050;2022-12-10T09:34:06;14.10;99.90
17859;DHT22;35426;30.698;104.050;2022-12-10T09:36:41;13.90;99.90
17859;DHT22;35426;30.698;104.050;2022-12-10T09:39:15;14.00;99.90
17859;DHT22;35426;30.698;104.050;2022-12-10T09:42:08;14.00;99.90
17859;DHT22;35426;30.698;104.050;2022-12-10T09:44:54;14.10;99.90
17859;DHT22;35426;30.698;104.050;2022-12-10T09:47:42;14.10;99.90
17859;DHT22;35426;30.698;104.050;2022-12-10T09:50:23;14.00;99.90
17859;DHT22;35426;30.698;104.050;2022-12-10T09:53:01;14.00;99.90
17859;DHT22;35426;30.698;104.050;2022-12-10T09:55:38;14.00;99.90
17859;DHT22;35426;30.698;104.050;2022-12-10T09:58:17;14.10;99.90
17859;DHT22;35426;30.698;104.050;2022-12-10T10:01:00;13.90;99.90
17859;DHT22;35426;30.698;104.050;2022-12-10T10:03:39;13.90;99.90
17859;DHT22;35426;30.698;104.050;2022-12-10T10:06:19;13.90;99.90
17859;DHT22;35426;30.698;104.050;2022-12-10T10:08:58;13.80;99.90
17859;DHT22;35426;30.698;104.050;2022-12-10T10:11:34;13.80;99.90
17859;DHT22;35426;30.698;104.050;2022-12-10T10:14:24;13.80;99.90
17859;DHT22;35426;30.698;104.050;2022-12-10T10:17:03;13.80;99.90
17859;DHT22;35426;30.698;104.050;2022-12-10T10:19:43;13.80;99.90
17859;DHT22;35426;30.698;104.050;2022-12-10T10:22:20;13.80;99.90
17859;DHT22;35426;30.698;104.050;2022-12-10T10:24:55;13.70;99.90
17859;DHT22;35426;30.698;104.050;2022-12-10T10:27:41;13.60;99.90
17859;DHT22;35426;30.698;104.050;2022-12-10T10:30:19;13.70;99.90
17859;DHT22;35426;30.698;104.050;2022-12-10T10:32:57;13.70;99.90
17859;DHT22;35426;30.698;104.050;2022-12-10T10:35:46;13.60;99.90
17859;DHT22;35426;30.698;104.050;2022-12-10T10:38:26;13.60;99.90
17859;DHT22;35426;30.698;104.050;2022-12-10T10:41:04;13.60;99.90
17859;DHT22;35426;30.698;104.050;2022-12-10T10:43:42;13.70;99.90
17859;DHT22;35426;30.698;104.050;2022-12-10T10:46:22;13.70;99.90
17859;DHT22;35426;30.698;104.050;2022-12-10T10:49:14;13.60;99.90
17859;DHT22;35426;30.698;104.050;2022-12-10T10:51:51;13.60;99.90
17859;DHT22;35426;30.698;104.050;2022-12-10T10:54:39;13.60;99.90
17859;DHT22;35426;30.698;104.050;2022-12-10T10:57:21;13.60;99.90
17859;DHT22;35426;30.698;104.050;2022-12-10T11:00:06;13.60;99.90
17859;DHT22;35426;30.698;104.050;2022-12-10T11:02:43;13.60;99.90
17859;DHT22;35426;30.698;104.050;2022-12-10T11:05:23;13.50;99.90
17859;DHT22;35426;30.698;104.050;2022-12-10T11:08:12;13.50;99.90
17859;DHT22;35426;30.698;104.050;2022-12-10T11:10:54;13.50;99.90
17859;DHT22;35426;30.698;104.050;2022-12-10T11:13:39;13.40;99.90
17859;DHT22;35426;30.698;104.050;2022-12-10T11:16:20;13.40;99.90
17859;DHT22;35426;30.698;104.050;2022-12-10T11:18:58;13.30;99.90
17859;DHT22;35426;30.698;104.050;2022-12-10T11:21:36;13.20;99.90
17859;DHT22;35426;30.698;104.050;2022-12-10T11:24:15;13.20;99.90
17859;DHT22;35426;30.698;104.050;2022-12-10T11:27:01;13.30;99.90
17859;DHT22;35426;30.698;104.050;2022-12-10T11:29:47;13.30;99.90
17859;DHT22;35426;30.698;104.050;2022-12-10T11:32:45;13.40;99.90
17859;DHT22;35426;30.698;104.050;2022-12-10T11:35:30;13.30;99.90
17859;DHT22;35426;30.698;104.050;2022-12-10T11:38:23;13.30;99.90
17859;DHT22;35426;30.698;104.050;2022-12-10T11:41:07;13.30;99.90
17859;DHT22;35426;30.698;104.050;2022-12-10T11:44:00;13.30;99.90
17859;DHT22;35426;30.698;104.050;2022-12-10T11:46:59;13.20;99.90
17859;DHT22;35426;30.698;104.050;2022-12-10T11:49:44;13.30;99.90
17859;DHT22;35426;30.698;104.050;2022-12-10T11:52:37;13.20;99.90
17859;DHT22;35426;30.698;104.050;2022-12-10T11:55:23;13.30;99.90
17859;DHT22;35426;30.698;104.050;2022-12-10T11:58:19;13.30;99.90
17859;DHT22;35426;30.698;104.050;2022-12-10T12:01:07;13.30;99.90
17859;DHT22;35426;30.698;104.050;2022-12-10T12:04:00;13.30;99.90
17859;DHT22;35426;30.698;104.050;2022-12-10T12:06:57;13.20;99.90
17859;DHT22;35426;30.698;104.050;2022-12-10T12:09:48;13.20;99.90
17859;DHT22;35426;30.698;104.050;2022-12-10T12:12:33;13.30;99.90
17859;DHT22;35426;30.698;104.050;2022-12-10T12:15:23;13.30;99.90
17859;DHT22;35426;30.698;104.050;2022-12-10T12:18:11;13.20;99.90
17859;DHT22;35426;30.698;104.050;2022-12-10T12:20:55;13.20;99.90
17859;DHT22;35426;30.698;104.050;2022-12-10T12:23:43;13.20;99.90
17859;DHT22;35426;30.698;104.050;2022-12-10T12:26:26;13.20;99.90
17859;DHT22;35426;30.698;104.050;2022-12-10T12:29:13;13.20;99.90
17859;DHT22;35426;30.698;104.050;2022-12-10T12:31:57;13.20;99.90
17859;DHT22;35426;30.698;104.050;2022-12-10T12:34:46;13.20;99.90
17859;DHT22;35426;30.698;104.050;2022-12-10T12:37:36;13.20;99.90
17859;DHT22;35426;30.698;104.050;2022-12-10T12:40:16;13.10;99.90
17859;DHT22;35426;30.698;104.050;2022-12-10T12:43:01;13.10;99.90
17859;DHT22;35426;30.698;104.050;2022-12-10T12:45:41;13.10;99.90
17859;DHT22;35426;30.698;104.050;2022-12-10T12:48:22;13.10;99.90
17859;DHT22;35426;30.698;104.050;2022-12-10T12:51:05;13.10;99.90
17859;DHT22;35426;30.698;104.050;2022-12-10T12:53:42;13.10;99.90
17859;DHT22;35426;30.698;104.050;2022-12-10T12:56:44;13.00;99.90
17859;DHT22;35426;30.698;104.050;2022-12-10T12:59:44;13.00;99.90
17859;DHT22;35426;30.698;104.050;2022-12-10T13:02:46;13.10;99.90
17859;DHT22;35426;30.698;104.050;2022-12-10T13:05:26;13.00;99.90
17859;DHT22;35426;30.698;104.050;2022-12-10T13:08:41;13.00;99.90
17859;DHT22;35426;30.698;104.050;2022-12-10T13:11:34;13.00;99.90
17859;DHT22;35426;30.698;104.050;2022-12-10T13:17:31;13.00;99.90
17859;DHT22;35426;30.698;104.050;2022-12-10T13:20:32;13.00;99.90
17859;DHT22;35426;30.698;104.050;2022-12-10T13:23:34;13.00;99.90
17859;DHT22;35426;30.698;104.050;2022-12-10T13:26:28;13.00;99.90
17859;DHT22;35426;30.698;104.050;2022-12-10T13:29:23;13.00;99.90
17859;DHT22;35426;30.698;104.050;2022-12-10T13:32:04;13.00;99.90
17859;DHT22;35426;30.698;104.050;2022-12-10T13:38:15;13.00;99.90
17859;DHT22;35426;30.698;104.050;2022-12-10T13:41:03;13.00;99.90
17859;DHT22;35426;30.698;104.050;2022-12-10T13:43:57;13.00;99.90
17859;DHT22;35426;30.698;104.050;2022-12-10T13:47:00;12.90;99.90
17859;DHT22;35426;30.698;104.050;2022-12-10T13:49:48;13.00;99.90
17859;DHT22;35426;30.698;104.050;2022-12-10T13:52:30;13.00;99.90
17859;DHT22;35426;30.698;104.050;2022-12-10T13:55:23;13.00;99.90
17859;DHT22;35426;30.698;104.050;2022-12-10T13:58:26;13.00;99.90
17859;DHT22;35426;30.698;104.050;2022-12-10T14:01:13;12.90;99.90
17859;DHT22;35426;30.698;104.050;2022-12-10T14:04:05;12.90;99.90
17859;DHT22;35426;30.698;104.050;2022-12-10T14:06:54;12.90;99.90
17859;DHT22;35426;30.698;104.050;2022-12-10T14:09:34;13.00;99.90
17859;DHT22;35426;30.698;104.050;2022-12-10T14:12:16;13.00;99.90
17859;DHT22;35426;30.698;104.050;2022-12-10T14:14:58;13.00;99.90
17859;DHT22;35426;30.698;104.050;2022-12-10T14:17:39;12.90;99.90
17859;DHT22;35426;30.698;104.050;2022-12-10T14:20:19;13.00;99.90
17859;DHT22;35426;30.698;104.050;2022-12-10T14:23:04;13.00;99.90
17859;DHT22;35426;30.698;104.050;2022-12-10T14:25:55;13.10;99.90
17859;DHT22;35426;30.698;104.050;2022-12-10T14:28:45;12.90;99.90
17859;DHT22;35426;30.698;104.050;2022-12-10T14:31:28;12.80;99.90
17859;DHT22;35426;30.698;104.050;2022-12-10T14:34:08;12.90;99.90
17859;DHT22;35426;30.698;104.050;2022-12-10T14:36:49;12.80;99.90
17859;DHT22;35426;30.698;104.050;2022-12-10T14:39:33;12.80;99.90
17859;DHT22;35426;30.698;104.050;2022-12-10T14:42:15;12.80;99.90
17859;DHT22;35426;30.698;104.050;2022-12-10T14:44:58;12.80;99.90
17859;DHT22;35426;30.698;104.050;2022-12-10T14:47:41;12.80;99.90
17859;DHT22;35426;30.698;104.050;2022-12-10T14:50:22;12.70;99.90
17859;DHT22;35426;30.698;104.050;2022-12-10T14:53:00;12.80;99.90
17859;DHT22;35426;30.698;104.050;2022-12-10T14:55:40;12.80;99.90
17859;DHT22;35426;30.698;104.050;2022-12-10T14:58:22;12.70;99.90
17859;DHT22;35426;30.698;104.050;2022-12-10T15:01:09;12.70;99.90
17859;DHT22;35426;30.698;104.050;2022-12-10T15:03:51;12.70;99.90
17859;DHT22;35426;30.698;104.050;2022-12-10T15:06:34;12.70;99.90
17859;DHT22;35426;30.698;104.050;2022-12-10T15:09:15;12.70;99.90
17859;DHT22;35426;30.698;104.050;2022-12-10T15:11:55;12.80;99.90
17859;DHT22;35426;30.698;104.050;2022-12-10T15:14:33;12.70;99.90
17859;DHT22;35426;30.698;104.050;2022-12-10T15:17:37;12.70;99.90
17859;DHT22;35426;30.698;104.050;2022-12-10T15:20:25;12.70;99.90
17859;DHT22;35426;30.698;104.050;2022-12-10T15:23:25;12.70;99.90
17859;DHT22;35426;30.698;104.050;2022-12-10T15:26:10;12.60;99.90
17859;DHT22;35426;30.698;104.050;2022-12-10T15:28:51;12.60;99.90
17859;DHT22;35426;30.698;104.050;2022-12-10T15:31:32;12.60;99.90
17859;DHT22;35426;30.698;104.050;2022-12-10T15:34:11;12.70;99.90
17859;DHT22;35426;30.698;104.050;2022-12-10T15:36:53;12.60;99.90
17859;DHT22;35426;30.698;104.050;2022-12-10T15:39:32;12.70;99.90
17859;DHT22;35426;30.698;104.050;2022-12-10T15:42:29;12.60;99.90
17859;DHT22;35426;30.698;104.050;2022-12-10T15:45:21;12.70;99.90
17859;DHT22;35426;30.698;104.050;2022-12-10T15:48:00;12.70;99.90
17859;DHT22;35426;30.698;104.050;2022-12-10T15:50:44;12.60;99.90
17859;DHT22;35426;30.698;104.050;2022-12-10T15:53:34;12.60;99.90
17859;DHT22;35426;30.698;104.050;2022-12-10T15:56:11;12.60;99.90
17859;DHT22;35426;30.698;104.050;2022-12-10T15:58:48;12.60;99.90
17859;DHT22;35426;30.698;104.050;2022-12-10T16:01:25;12.60;99.90
17859;DHT22;35426;30.698;104.050;2022-12-10T16:04:03;12.60;99.90
17859;DHT22;35426;30.698;104.050;2022-12-10T16:06:40;12.60;99.90
17859;DHT22;35426;30.698;104.050;2022-12-10T16:09:20;12.50;99.90
17859;DHT22;35426;30.698;104.050;2022-12-10T16:11:58;12.50;99.90
17859;DHT22;35426;30.698;104.050;2022-12-10T16:14:35;12.50;99.90
17859;DHT22;35426;30.698;104.050;2022-12-10T16:17:12;12.50;99.90
17859;DHT22;35426;30.698;104.050;2022-12-10T16:19:49;12.40;99.90
17859;DHT22;35426;30.698;104.050;2022-12-10T16:22:26;12.40;99.90
17859;DHT22;35426;30.698;104.050;2022-12-10T16:25:06;12.50;99.90
17859;DHT22;35426;30.698;104.050;2022-12-10T16:27:42;12.50;99.90